Time;durP1;ratioP1;P1;durP2;ratioP2;P2;SDS_P1;SDS_P2;PMS_P1;PMS_P2;Temp;Humidity;BMP_temperature;BMP_pressure;BME280_temperature;BME280_humidity;BME280_pressure;Samples;Min_cycle;Max_cycle;Signal;HPM_P1;HPM_P2
2023/04/07 00:01:20;;;;;;;2.53;0.93;;;14.60;29.90;;;;;;5984649;29;20460;-70
2023/04/07 00:04:21;;;;;;;2.58;1.38;;;14.60;30.00;;;;;;5984509;29;20057;-69
2023/04/07 00:07:22;;;;;;;2.83;1.23;;;14.50;30.10;;;;;;5984381;29;20042;-70
2023/04/07 00:10:23;;;;;;;1.90;1.10;;;14.50;30.20;;;;;;5984064;29;20122;-68
2023/04/07 00:13:25;;;;;;;1.80;1.17;;;14.50;30.30;;;;;;6007179;29;20026;-69
2023/04/07 00:16:26;;;;;;;1.83;1.00;;;14.50;30.60;;;;;;5996942;29;20030;-70
2023/04/07 00:19:26;;;;;;;3.42;1.50;;;14.50;30.90;;;;;;5982896;29;20039;-69
2023/04/07 00:22:28;;;;;;;3.17;1.42;;;14.40;31.50;;;;;;5983323;29;20050;-70
2023/04/07 00:25:29;;;;;;;4.85;1.17;;;14.30;31.90;;;;;;6014721;29;20038;-69
2023/04/07 00:28:30;;;;;;;2.63;1.48;;;14.20;32.10;;;;;;5983608;29;20040;-70
2023/04/07 00:31:30;;;;;;;3.60;1.55;;;14.10;32.30;;;;;;5984042;29;20039;-68
2023/04/07 00:34:31;;;;;;;3.67;1.58;;;14.10;32.60;;;;;;5983870;29;20030;-69
2023/04/07 00:37:32;;;;;;;2.50;1.15;;;14.00;32.90;;;;;;5986168;29;20068;-68
2023/04/07 00:40:33;;;;;;;3.20;1.63;;;14.00;33.10;;;;;;6003794;29;20536;-68
2023/04/07 00:43:34;;;;;;;4.25;1.80;;;13.90;33.30;;;;;;5983999;29;20034;-70
2023/04/07 00:46:35;;;;;;;5.68;1.63;;;13.90;33.60;;;;;;6012820;29;20069;-68
2023/04/07 00:49:37;;;;;;;3.25;1.38;;;13.90;33.80;;;;;;5983590;29;20027;-69
2023/04/07 00:52:38;;;;;;;4.55;1.48;;;13.90;34.00;;;;;;6013020;29;20038;-69
2023/04/07 00:55:39;;;;;;;2.33;1.42;;;13.80;34.10;;;;;;6013149;29;20046;-70
2023/04/07 00:58:40;;;;;;;2.70;1.25;;;13.70;34.30;;;;;;5997487;29;20026;-69
2023/04/07 01:01:56;;;;;;;2.75;1.67;;;13.70;34.50;;;;;;5998054;29;20049;-70
2023/04/07 01:05:19;;;;;;;3.17;1.35;;;13.60;34.40;;;;;;6013756;29;20121;-69
2023/04/07 01:08:26;;;;;;;2.20;1.40;;;13.50;34.40;;;;;;5985511;29;20108;-70
2023/04/07 01:11:40;;;;;;;5.20;1.77;;;13.50;34.40;;;;;;6023303;29;20340;-69
2023/04/07 01:14:49;;;;;;;2.22;1.30;;;13.40;34.50;;;;;;6005099;29;20061;-68
2023/04/07 01:18:12;;;;;;;7.25;1.40;;;13.40;34.60;;;;;;6004739;29;20038;-70
2023/04/07 01:21:18;;;;;;;4.38;1.42;;;13.30;34.60;;;;;;6024409;29;20030;-70
2023/04/07 01:24:58;;;;;;;2.15;1.20;;;13.30;34.70;;;;;;6012411;29;20114;-69
2023/04/07 01:28:40;;;;;;;2.70;1.00;;;13.20;34.80;;;;;;5981516;29;20038;-71
2023/04/07 01:31:42;;;;;;;1.60;1.10;;;13.20;35.00;;;;;;5981732;29;20050;-70
2023/04/07 01:34:44;;;;;;;1.95;1.30;;;13.20;35.10;;;;;;5981617;29;20027;-68
2023/04/07 01:37:48;;;;;;;3.47;1.42;;;13.20;35.10;;;;;;6017503;29;20078;-69
2023/04/07 01:40:50;;;;;;;2.60;1.20;;;13.10;35.00;;;;;;6003633;29;20022;-69
2023/04/07 01:43:53;;;;;;;2.30;1.27;;;13.10;35.00;;;;;;6003416;29;20121;-69
2023/04/07 01:46:56;;;;;;;3.70;1.27;;;13.10;35.00;;;;;;6012175;29;20038;-68
2023/04/07 01:50:04;;;;;;;2.10;0.98;;;13.10;35.00;;;;;;5982567;29;20113;-68
2023/04/07 01:53:05;;;;;;;6.07;1.40;;;13.30;35.20;;;;;;5981839;29;20030;-70
2023/04/07 01:56:06;;;;;;;8.48;1.67;;;13.20;35.10;;;;;;5981929;29;20803;-69
2023/04/07 01:59:09;;;;;;;5.68;1.70;;;13.20;35.30;;;;;;5981287;29;20034;-69
2023/04/07 02:02:10;;;;;;;2.60;1.40;;;13.10;35.50;;;;;;5981181;29;20027;-68
2023/04/07 02:05:13;;;;;;;2.45;1.17;;;13.10;35.80;;;;;;6011972;29;20592;-69
2023/04/07 02:08:18;;;;;;;3.85;1.73;;;13.00;35.80;;;;;;5980819;29;20046;-70
2023/04/07 02:11:21;;;;;;;2.42;1.15;;;12.90;36.00;;;;;;6019488;29;20037;-69
2023/04/07 02:14:24;;;;;;;1.52;1.10;;;12.90;36.10;;;;;;6034266;29;20045;-70
2023/04/07 02:17:36;;;;;;;3.28;1.30;;;12.80;36.20;;;;;;6008294;29;20070;-68
2023/04/07 02:20:38;;;;;;;1.13;0.90;;;12.80;36.50;;;;;;5980861;29;20329;-69
2023/04/07 02:23:39;;;;;;;3.58;1.13;;;12.80;36.70;;;;;;6011077;29;20049;-70
2023/04/07 02:26:42;;;;;;;1.95;1.20;;;12.70;36.70;;;;;;5980884;29;20035;-69
2023/04/07 02:29:42;;;;;;;3.03;0.90;;;12.60;36.80;;;;;;5981800;29;20125;-68
2023/04/07 02:32:44;;;;;;;4.22;1.55;;;12.60;37.10;;;;;;6011000;29;20074;-70
2023/04/07 02:35:45;;;;;;;3.70;1.17;;;12.60;36.90;;;;;;6011104;29;20147;-69
2023/04/07 02:38:46;;;;;;;1.85;1.13;;;12.60;36.80;;;;;;6024059;29;20091;-69
2023/04/07 02:41:46;;;;;;;1.92;1.08;;;12.60;36.70;;;;;;6033925;29;20030;-69
2023/04/07 02:44:47;;;;;;;1.35;0.80;;;12.60;36.80;;;;;;5996368;29;20071;-69
2023/04/07 02:47:48;;;;;;;2.63;1.00;;;12.60;36.70;;;;;;6010538;29;20053;-68
2023/04/07 02:50:51;;;;;;;1.83;1.02;;;12.60;36.90;;;;;;6011251;29;20033;-69
2023/04/07 02:53:52;;;;;;;2.88;1.20;;;12.50;37.00;;;;;;5985923;29;20058;-70
2023/04/07 02:56:53;;;;;;;4.32;1.05;;;12.50;37.20;;;;;;6015134;29;20027;-69
2023/04/07 02:59:56;;;;;;;2.42;1.17;;;12.40;37.50;;;;;;6014548;29;20035;-69
2023/04/07 03:03:00;;;;;;;5.75;1.48;;;12.40;37.60;;;;;;6015167;29;20782;-70
2023/04/07 03:06:05;;;;;;;2.70;1.20;;;12.40;37.80;;;;;;6015171;29;20122;-68
2023/04/07 03:09:07;;;;;;;1.92;1.10;;;12.30;37.90;;;;;;6014887;29;20029;-70
2023/04/07 03:12:08;;;;;;;2.17;1.13;;;12.30;38.20;;;;;;6029393;29;20483;-72
2023/04/07 03:15:11;;;;;;;3.67;1.58;;;12.30;38.40;;;;;;6007162;29;20121;-70
2023/04/07 03:18:12;;;;;;;2.47;1.30;;;12.30;38.70;;;;;;6037720;29;20026;-70
2023/04/07 03:21:17;;;;;;;4.30;1.50;;;12.30;38.80;;;;;;6007057;29;20045;-68
2023/04/07 03:24:19;;;;;;;4.22;1.10;;;12.30;38.70;;;;;;6007051;29;20107;-70
2023/04/07 03:27:21;;;;;;;3.33;1.00;;;12.30;38.50;;;;;;5991886;29;20190;-70
2023/04/07 03:30:24;;;;;;;2.55;1.23;;;12.30;38.50;;;;;;5999176;29;20424;-70
2023/04/07 03:33:25;;;;;;;2.92;1.25;;;12.30;38.70;;;;;;5983812;29;20033;-69
2023/04/07 03:36:28;;;;;;;1.30;0.93;;;12.30;38.50;;;;;;6014347;29;20026;-69
2023/04/07 03:39:32;;;;;;;2.28;0.93;;;12.20;38.40;;;;;;6033104;29;20026;-68
2023/04/07 03:42:35;;;;;;;1.15;0.77;;;12.20;38.40;;;;;;6018628;29;20302;-70
2023/04/07 03:45:39;;;;;;;1.23;0.80;;;12.10;38.40;;;;;;5975813;29;20046;-70
2023/04/07 03:48:41;;;;;;;4.03;1.38;;;12.10;38.50;;;;;;5960515;29;20073;-69
2023/04/07 03:51:44;;;;;;;1.77;0.90;;;12.00;38.50;;;;;;5960879;29;20047;-69
2023/04/07 03:54:49;;;;;;;2.53;0.98;;;12.00;38.60;;;;;;5975559;29;20489;-70
2023/04/07 03:57:51;;;;;;;3.08;0.93;;;11.90;38.70;;;;;;5991354;29;20027;-68
2023/04/07 04:00:52;;;;;;;1.88;0.90;;;11.90;38.70;;;;;;5991627;29;20030;-69
2023/04/07 04:03:53;;;;;;;1.48;1.13;;;11.80;38.70;;;;;;5963840;29;20031;-69
2023/04/07 04:06:59;;;;;;;1.50;0.75;;;11.80;38.80;;;;;;5965866;29;20061;-69
2023/04/07 04:10:12;;;;;;;1.85;0.95;;;11.90;38.90;;;;;;5961081;29;20061;-70
2023/04/07 04:13:17;;;;;;;1.83;1.00;;;11.80;39.00;;;;;;6036614;29;20026;-70
2023/04/07 04:16:18;;;;;;;2.25;1.10;;;11.90;39.00;;;;;;6006786;29;20058;-69
2023/04/07 04:19:21;;;;;;;2.55;0.88;;;11.90;38.90;;;;;;6036066;29;20101;-69
2023/04/07 04:22:23;;;;;;;2.70;1.20;;;12.00;38.90;;;;;;5999242;29;20114;-68
2023/04/07 04:25:31;;;;;;;0.68;0.50;;;12.00;38.80;;;;;;5982549;29;20031;-69
2023/04/07 04:28:32;;;;;;;2.08;0.93;;;12.10;38.80;;;;;;5997322;29;20030;-68
2023/04/07 04:31:35;;;;;;;2.17;1.15;;;12.10;38.70;;;;;;5997693;29;20056;-70
2023/04/07 04:34:36;;;;;;;3.90;1.27;;;12.10;38.70;;;;;;6012914;29;20047;-69
2023/04/07 04:37:38;;;;;;;2.33;1.23;;;12.20;38.60;;;;;;5982131;29;20033;-68
2023/04/07 04:40:43;;;;;;;5.72;1.45;;;12.20;38.60;;;;;;5982468;29;20041;-70
2023/04/07 04:43:46;;;;;;;1.85;1.20;;;12.20;38.70;;;;;;6012981;29;20058;-70
2023/04/07 04:46:51;;;;;;;9.82;1.27;;;12.20;38.80;;;;;;5982468;29;20046;-69
2023/04/07 04:49:52;;;;;;;2.22;1.42;;;12.10;38.90;;;;;;5982437;29;20026;-70
2023/04/07 04:52:54;;;;;;;2.10;1.25;;;12.10;38.90;;;;;;5982066;29;20476;-69
2023/04/07 04:55:57;;;;;;;3.28;1.25;;;12.20;38.90;;;;;;5982603;29;20026;-69
2023/04/07 04:59:09;;;;;;;1.08;0.80;;;12.20;38.80;;;;;;5996509;29;20338;-69
2023/04/07 05:02:20;;;;;;;3.75;1.08;;;12.30;38.60;;;;;;5982227;29;20659;-70
2023/04/07 05:05:23;;;;;;;1.08;0.98;;;12.30;38.50;;;;;;5983018;29;20037;-75
2023/04/07 05:08:26;;;;;;;2.22;0.85;;;12.30;38.50;;;;;;5981880;29;20102;-70
2023/04/07 05:11:27;;;;;;;2.15;1.15;;;12.10;38.80;;;;;;6020868;29;20036;-69
2023/04/07 05:14:30;;;;;;;2.78;0.95;;;12.00;39.30;;;;;;6003952;29;20104;-70
2023/04/07 05:17:38;;;;;;;1.98;1.35;;;11.90;39.90;;;;;;6005385;29;20055;-69
2023/04/07 05:20:39;;;;;;;2.50;1.05;;;11.80;40.20;;;;;;6012166;29;20066;-70
2023/04/07 05:23:41;;;;;;;7.00;1.02;;;11.70;40.40;;;;;;5983283;29;20090;-70
2023/04/07 05:26:44;;;;;;;2.58;1.15;;;11.70;40.50;;;;;;6012297;29;20111;-71
2023/04/07 05:29:45;;;;;;;12.50;1.20;;;11.70;40.50;;;;;;6011972;29;20035;-71
2023/04/07 05:32:55;;;;;;;2.03;0.95;;;11.60;40.60;;;;;;5981795;29;20046;-70
2023/04/07 05:36:15;;;;;;;1.70;0.95;;;11.60;40.60;;;;;;5983380;29;20379;-71
2023/04/07 05:39:16;;;;;;;1.15;0.80;;;11.60;40.80;;;;;;6028595;29;20116;-71
2023/04/07 05:42:18;;;;;;;1.73;1.17;;;11.60;40.80;;;;;;6034692;29;20070;-71
2023/04/07 05:45:24;;;;;;;3.13;1.20;;;11.60;40.90;;;;;;6021713;29;20030;-69
2023/04/07 05:48:25;;;;;;;2.65;1.25;;;11.50;41.00;;;;;;6011451;29;20042;-70
2023/04/07 05:51:28;;;;;;;4.78;1.23;;;11.60;41.20;;;;;;6011170;29;20487;-70
2023/04/07 05:54:30;;;;;;;2.22;0.90;;;11.60;41.20;;;;;;6011676;29;20437;-72
2023/04/07 05:57:33;;;;;;;2.38;1.02;;;11.60;41.10;;;;;;5980764;29;20030;-70
2023/04/07 06:00:37;;;;;;;5.57;1.13;;;11.70;41.10;;;;;;5981099;29;20045;-70
2023/04/07 06:03:44;;;;;;;3.42;0.98;;;11.80;40.90;;;;;;6011242;29;20481;-71
2023/04/07 06:06:51;;;;;;;4.75;1.45;;;11.90;40.50;;;;;;6011395;29;20030;-69
2023/04/07 06:09:53;;;;;;;2.03;0.85;;;12.00;40.30;;;;;;5995658;29;20369;-70
2023/04/07 06:12:53;;;;;;;2.80;1.10;;;12.00;40.20;;;;;;6031029;29;20185;-69
2023/04/07 06:15:57;;;;;;;10.43;1.25;;;12.00;40.10;;;;;;5989725;29;20113;-70
2023/04/07 06:18:58;;;;;;;2.28;0.70;;;12.10;40.10;;;;;;5995530;29;20061;-70
2023/04/07 06:21:59;;;;;;;1.52;1.00;;;12.10;40.10;;;;;;5982076;29;20034;-69
2023/04/07 06:25:00;;;;;;;2.67;0.60;;;12.30;39.90;;;;;;5981770;29;20034;-70
2023/04/07 06:28:01;;;;;;;7.72;1.20;;;12.30;39.80;;;;;;5981831;29;20118;-70
2023/04/07 06:31:02;;;;;;;8.70;1.27;;;12.30;39.90;;;;;;5980794;29;20030;-69
2023/04/07 06:34:03;;;;;;;4.25;0.98;;;12.40;39.90;;;;;;6010343;29;20096;-70
2023/04/07 06:37:05;;;;;;;2.38;1.02;;;12.40;40.50;;;;;;5980427;29;20034;-70
2023/04/07 06:40:07;;;;;;;4.75;0.82;;;12.50;39.90;;;;;;6018089;29;20026;-70
2023/04/07 06:43:08;;;;;;;2.08;1.10;;;12.60;39.90;;;;;;6004079;29;20083;-69
2023/04/07 06:46:17;;;;;;;3.45;0.85;;;12.60;39.90;;;;;;5976466;29;20042;-70
2023/04/07 06:49:18;;;;;;;4.20;1.00;;;12.60;40.00;;;;;;5992608;29;20038;-72
2023/04/07 06:52:19;;;;;;;1.98;1.20;;;12.70;40.20;;;;;;5981608;29;20062;-71
2023/04/07 06:55:20;;;;;;;8.43;1.88;;;12.70;40.20;;;;;;5981779;29;20026;-70
2023/04/07 06:58:21;;;;;;;4.32;1.40;;;12.80;40.30;;;;;;5982440;29;20380;-70
2023/04/07 07:01:22;;;;;;;2.15;1.08;;;13.00;40.30;;;;;;5985381;29;20083;-70
2023/04/07 07:04:22;;;;;;;1.58;1.15;;;13.00;40.20;;;;;;5987587;29;20054;-72
2023/04/07 07:07:24;;;;;;;5.25;1.40;;;13.10;39.90;;;;;;5982991;29;20449;-70
2023/04/07 07:10:25;;;;;;;5.68;1.80;;;13.20;39.90;;;;;;5982506;29;20034;-70
2023/04/07 07:13:27;;;;;;;6.15;1.88;;;13.20;40.10;;;;;;5981569;29;20446;-69
2023/04/07 07:16:28;;;;;;;2.97;1.67;;;13.30;40.60;;;;;;5981300;29;20026;-70
2023/04/07 07:19:28;;;;;;;7.30;1.55;;;13.30;41.00;;;;;;5980835;29;20480;-72
2023/04/07 07:22:29;;;;;;;3.78;1.70;;;13.30;41.20;;;;;;5981584;29;20037;-71
2023/04/07 07:25:30;;;;;;;8.57;1.92;;;13.40;41.30;;;;;;5981714;29;20069;-71
2023/04/07 07:28:31;;;;;;;6.22;1.85;;;13.50;41.50;;;;;;5981538;29;20070;-70
2023/04/07 07:31:32;;;;;;;18.38;2.30;;;13.60;41.30;;;;;;5981405;29;20226;-70
2023/04/07 07:34:33;;;;;;;10.50;1.90;;;13.70;41.20;;;;;;6010485;29;20061;-70
2023/04/07 07:37:34;;;;;;;17.05;2.42;;;13.70;41.30;;;;;;6013770;29;20145;-69
2023/04/07 07:40:35;;;;;;;14.48;2.00;;;13.80;41.30;;;;;;6007665;29;20082;-70
2023/04/07 07:43:36;;;;;;;5.10;1.40;;;13.80;41.20;;;;;;6006325;29;20434;-69
2023/04/07 07:46:37;;;;;;;5.22;1.35;;;13.90;41.20;;;;;;5977153;29;20069;-70
2023/04/07 07:49:38;;;;;;;9.73;2.30;;;14.00;41.50;;;;;;5962481;29;20027;-70
2023/04/07 07:52:39;;;;;;;4.13;2.03;;;14.00;42.00;;;;;;5962888;29;20042;-69
2023/04/07 07:55:40;;;;;;;15.35;2.20;;;14.10;42.20;;;;;;5962351;29;20039;-70
2023/04/07 07:58:41;;;;;;;4.38;1.88;;;14.00;42.60;;;;;;5962247;29;20035;-69
2023/04/07 08:01:42;;;;;;;6.88;2.17;;;14.00;43.10;;;;;;5962532;29;20083;-69
2023/04/07 08:04:43;;;;;;;7.20;2.55;;;13.90;43.50;;;;;;5961834;29;20053;-71
2023/04/07 08:07:44;;;;;;;42.78;3.67;;;13.70;44.10;;;;;;5998298;29;20142;-70
2023/04/07 08:10:45;;;;;;;17.55;3.15;;;13.60;44.70;;;;;;6016823;29;20041;-70
2023/04/07 08:13:45;;;;;;;19.70;3.35;;;13.50;45.50;;;;;;6006615;29;20030;-71
2023/04/07 08:16:46;;;;;;;8.63;2.22;;;13.40;46.30;;;;;;6006811;29;20026;-71
2023/04/07 08:19:47;;;;;;;4.60;2.17;;;13.20;46.60;;;;;;6006475;29;20098;-71
2023/04/07 08:22:48;;;;;;;3.60;1.88;;;13.20;46.90;;;;;;5995255;29;20034;-69
2023/04/07 08:25:50;;;;;;;6.30;2.17;;;13.30;47.20;;;;;;5984708;29;20043;-71
2023/04/07 08:28:52;;;;;;;28.23;3.30;;;13.40;46.90;;;;;;5984963;29;20048;-71
2023/04/07 08:31:53;;;;;;;9.13;1.98;;;13.30;46.90;;;;;;5985107;29;20038;-71
2023/04/07 08:34:55;;;;;;;5.30;2.22;;;13.20;47.10;;;;;;5983087;29;20149;-71
2023/04/07 08:37:55;;;;;;;5.65;1.90;;;13.10;47.30;;;;;;5984351;29;20449;-69
2023/04/07 08:41:09;;;;;;;3.67;1.80;;;13.00;47.60;;;;;;5983910;29;20106;-71
2023/04/07 08:44:10;;;;;;;3.90;2.13;;;13.00;47.90;;;;;;5983600;29;20110;-71
2023/04/07 08:47:12;;;;;;;7.97;2.60;;;13.00;48.00;;;;;;5983351;29;20104;-69
2023/04/07 08:50:16;;;;;;;4.28;2.10;;;13.10;48.20;;;;;;5983709;29;20026;-69
2023/04/07 08:53:22;;;;;;;9.68;2.50;;;13.10;48.20;;;;;;5983906;29;20065;-71
2023/04/07 08:56:24;;;;;;;8.05;2.75;;;13.20;47.90;;;;;;5984274;29;20330;-70
2023/04/07 08:59:28;;;;;;;14.68;2.92;;;13.40;47.90;;;;;;5983786;29;20085;-72
2023/04/07 09:02:29;;;;;;;10.88;3.97;;;13.50;47.80;;;;;;5984005;29;20043;-72
2023/04/07 09:05:32;;;;;;;8.73;3.42;;;13.70;47.90;;;;;;5984088;29;20089;-71
2023/04/07 09:08:32;;;;;;;10.88;4.22;;;13.80;47.90;;;;;;6012661;29;20038;-70
2023/04/07 09:11:36;;;;;;;4.38;2.58;;;13.80;47.90;;;;;;6023093;29;20458;-70
2023/04/07 09:14:37;;;;;;;10.07;3.25;;;13.90;47.80;;;;;;6004687;29;20030;-69
2023/04/07 09:17:37;;;;;;;15.88;4.75;;;13.90;47.60;;;;;;6004859;29;20048;-72
2023/04/07 09:20:58;;;;;;;7.07;3.08;;;13.90;47.70;;;;;;5983976;29;20050;-70
2023/04/07 09:23:59;;;;;;;5.80;2.38;;;13.90;47.70;;;;;;5983815;29;20456;-70
2023/04/07 09:27:17;;;;;;;9.52;3.10;;;13.90;47.60;;;;;;5983214;29;20124;-71
2023/04/07 09:30:18;;;;;;;6.10;2.80;;;13.80;47.50;;;;;;5983209;29;20026;-70
2023/04/07 09:33:29;;;;;;;4.40;2.10;;;13.80;47.90;;;;;;5982880;29;20038;-70
2023/04/07 09:36:41;;;;;;;7.25;3.05;;;13.80;48.10;;;;;;5983040;29;20109;-72
2023/04/07 09:39:52;;;;;;;11.70;2.25;;;13.80;48.30;;;;;;5982531;29;20494;-72
2023/04/07 09:42:53;;;;;;;5.15;2.20;;;13.90;48.40;;;;;;5982914;29;20030;-72
2023/04/07 09:46:10;;;;;;;9.82;3.20;;;13.90;48.50;;;;;;5973401;29;20523;-71
2023/04/07 09:49:11;;;;;;;7.15;3.17;;;13.80;48.80;;;;;;5959782;29;20041;-70
2023/04/07 09:52:12;;;;;;;10.73;2.47;;;13.90;49.30;;;;;;5959958;29;20035;-72
2023/04/07 09:55:14;;;;;;;8.98;2.78;;;14.00;49.60;;;;;;5959975;29;20034;-70
2023/04/07 09:58:16;;;;;;;10.05;2.75;;;14.10;49.50;;;;;;5988328;29;20107;-70
2023/04/07 10:01:17;;;;;;;24.13;6.38;;;14.20;49.60;;;;;;5974248;29;20125;-73
2023/04/07 10:04:18;;;;;;;26.45;5.75;;;14.30;49.80;;;;;;5982129;29;20026;-70
2023/04/07 10:07:19;;;;;;;18.52;3.25;;;14.30;49.70;;;;;;5988231;29;20428;-69
2023/04/07 10:10:20;;;;;;;8.35;2.72;;;14.50;49.90;;;;;;5990261;29;20125;-71
2023/04/07 10:13:21;;;;;;;12.05;3.65;;;14.60;49.80;;;;;;6004278;29;20030;-71
2023/04/07 10:16:22;;;;;;;14.23;4.43;;;14.90;50.40;;;;;;5985234;29;20034;-71
2023/04/07 10:19:25;;;;;;;21.90;3.40;;;15.00;49.40;;;;;;5982410;29;20456;-72
2023/04/07 10:22:27;;;;;;;9.23;2.78;;;15.20;49.00;;;;;;5982319;29;20035;-71
2023/04/07 10:25:29;;;;;;;10.93;2.63;;;15.20;48.70;;;;;;5982133;29;20107;-71
2023/04/07 10:28:32;;;;;;;5.55;2.22;;;15.20;48.70;;;;;;5980572;29;20035;-70
2023/04/07 10:31:34;;;;;;;8.90;3.60;;;15.30;48.70;;;;;;5980823;29;20163;-70
2023/04/07 10:34:56;;;;;;;7.53;3.60;;;15.40;48.40;;;;;;5981674;29;20034;-70
2023/04/07 10:38:06;;;;;;;9.93;4.55;;;15.50;47.90;;;;;;5988427;29;20036;-70
2023/04/07 10:41:33;;;;;;;10.85;4.32;;;15.60;47.80;;;;;;6004101;29;20113;-70
2023/04/07 10:44:40;;;;;;;9.50;3.97;;;15.70;47.70;;;;;;5996935;29;20026;-71
2023/04/07 10:48:00;;;;;;;8.23;3.38;;;15.90;47.50;;;;;;5982403;29;20091;-69
2023/04/07 10:51:04;;;;;;;10.55;4.10;;;16.10;47.00;;;;;;5982638;29;20026;-70
2023/04/07 10:54:19;;;;;;;10.52;3.22;;;16.30;46.60;;;;;;6011679;29;20091;-69
2023/04/07 10:57:22;;;;;;;13.13;3.50;;;16.40;46.20;;;;;;5981584;29;20041;-70
2023/04/07 11:00:23;;;;;;;4.47;2.60;;;16.50;46.00;;;;;;5992167;29;20110;-70
2023/04/07 11:03:25;;;;;;;10.48;4.20;;;16.60;46.00;;;;;;6003176;29;20125;-70
2023/04/07 11:06:26;;;;;;;15.15;5.93;;;16.60;45.90;;;;;;6003560;29;20139;-72
2023/04/07 11:09:27;;;;;;;10.05;4.07;;;16.80;45.30;;;;;;6004317;29;20034;-70
2023/04/07 11:12:30;;;;;;;13.77;4.82;;;17.20;44.70;;;;;;6034685;29;20356;-70
2023/04/07 11:15:33;;;;;;;10.75;2.85;;;17.50;44.10;;;;;;5991992;29;20121;-70
2023/04/07 11:18:36;;;;;;;14.43;4.47;;;17.70;43.30;;;;;;6008057;29;20022;-71
2023/04/07 11:21:37;;;;;;;4.38;2.25;;;18.10;42.90;;;;;;6007274;29;20033;-70
2023/04/07 11:24:38;;;;;;;3.67;2.22;;;18.40;42.40;;;;;;5995254;29;20364;-69
2023/04/07 11:27:38;;;;;;;5.97;3.00;;;18.60;42.00;;;;;;5985488;29;20026;-69
2023/04/07 11:30:50;;;;;;;7.97;4.20;;;18.80;41.80;;;;;;5985767;29;20041;-71
2023/04/07 11:33:54;;;;;;;3.58;2.10;;;19.00;41.20;;;;;;5985853;29;20499;-70
2023/04/07 11:36:58;;;;;;;4.30;2.75;;;19.20;40.80;;;;;;5983773;29;20042;-70
2023/04/07 11:39:59;;;;;;;4.75;2.20;;;19.40;40.30;;;;;;5984856;29;20027;-69
2023/04/07 11:43:03;;;;;;;2.30;1.88;;;19.60;39.80;;;;;;5985518;29;20035;-70
2023/04/07 11:46:12;;;;;;;4.15;2.13;;;19.80;39.20;;;;;;5985610;29;20030;-71
2023/04/07 11:49:14;;;;;;;3.58;2.05;;;20.00;38.70;;;;;;5985105;29;20083;-69
2023/04/07 11:52:15;;;;;;;7.28;3.85;;;20.20;38.30;;;;;;5984863;29;20026;-69
2023/04/07 11:55:21;;;;;;;2.65;1.83;;;20.30;38.00;;;;;;5984753;29;20045;-70
2023/04/07 11:58:22;;;;;;;3.03;2.10;;;20.70;37.50;;;;;;6013459;29;20121;-71
2023/04/07 12:01:39;;;;;;;3.88;1.98;;;21.00;36.80;;;;;;6013924;29;20062;-70
2023/04/07 12:04:56;;;;;;;2.40;1.80;;;21.40;35.90;;;;;;6013425;29;20381;-71
2023/04/07 12:07:57;;;;;;;3.10;2.00;;;21.80;35.20;;;;;;6013333;29;20042;-70
2023/04/07 12:11:05;;;;;;;4.20;2.40;;;22.30;34.30;;;;;;5988742;29;20578;-71
2023/04/07 12:14:07;;;;;;;2.47;1.45;;;22.70;33.50;;;;;;6006367;29;20347;-71
2023/04/07 12:17:23;;;;;;;4.70;1.95;;;22.90;33.30;;;;;;6005781;29;20042;-69
2023/04/07 12:20:25;;;;;;;3.03;1.55;;;22.60;33.00;;;;;;6007405;29;20026;-70
2023/04/07 12:23:26;;;;;;;5.85;1.80;;;22.50;33.00;;;;;;6004098;29;20038;-70
2023/04/07 12:26:27;;;;;;;3.58;2.03;;;22.30;33.10;;;;;;5982402;29;20133;-70
2023/04/07 12:29:28;;;;;;;5.40;2.30;;;22.00;33.40;;;;;;5983625;29;20026;-69
2023/04/07 12:32:31;;;;;;;3.92;2.25;;;21.70;33.70;;;;;;5982291;29;20444;-70
2023/04/07 12:35:32;;;;;;;5.03;1.98;;;21.30;34.10;;;;;;5982367;29;20390;-69
2023/04/07 12:38:33;;;;;;;2.35;1.38;;;21.00;34.50;;;;;;5986542;29;20035;-71
2023/04/07 12:41:34;;;;;;;8.63;1.83;;;20.80;34.80;;;;;;5984035;29;20057;-70
2023/04/07 12:44:36;;;;;;;5.65;2.28;;;20.60;34.80;;;;;;5984229;29;20033;-71
2023/04/07 12:47:36;;;;;;;4.82;1.95;;;20.50;34.90;;;;;;6012509;29;20030;-71
2023/04/07 12:50:37;;;;;;;6.38;1.77;;;20.20;34.60;;;;;;5982944;29;20482;-70
2023/04/07 12:53:38;;;;;;;13.82;3.05;;;19.90;34.80;;;;;;5983341;29;20053;-69
2023/04/07 12:56:41;;;;;;;27.92;3.17;;;20.00;35.10;;;;;;5983182;29;20026;-71
2023/04/07 12:59:41;;;;;;;5.07;2.15;;;21.30;33.90;;;;;;5983376;29;20067;-72
2023/04/07 13:02:42;;;;;;;20.17;2.10;;;22.50;31.80;;;;;;5996876;29;20644;-72
2023/04/07 13:05:43;;;;;;;4.07;1.30;;;23.90;30.20;;;;;;5981890;29;20117;-71
2023/04/07 13:08:44;;;;;;;5.43;1.25;;;24.70;28.50;;;;;;5983013;29;20030;-70
2023/04/07 13:11:45;;;;;;;2.35;1.40;;;25.00;28.10;;;;;;6024447;29;20083;-71
2023/04/07 13:14:46;;;;;;;5.45;1.42;;;25.50;27.60;;;;;;5994925;29;20030;-70
2023/04/07 13:18:11;;;;;;;2.25;1.20;;;25.30;27.30;;;;;;5984068;29;20172;-70
2023/04/07 13:21:12;;;;;;;2.97;1.00;;;25.00;27.50;;;;;;5985165;29;20133;-69
2023/04/07 13:24:13;;;;;;;3.78;1.25;;;24.90;26.70;;;;;;5990854;29;20090;-69
2023/04/07 13:27:13;;;;;;;1.33;0.90;;;24.40;26.80;;;;;;5985317;29;20512;-72
2023/04/07 13:30:14;;;;;;;2.13;1.40;;;23.40;27.10;;;;;;5983330;29;20043;-71
2023/04/07 13:33:15;;;;;;;5.68;0.90;;;22.40;28.10;;;;;;5981265;29;20030;-72
2023/04/07 13:36:16;;;;;;;4.45;1.00;;;21.60;29.20;;;;;;5983230;29;20032;-71
2023/04/07 13:39:17;;;;;;;1.15;0.70;;;20.90;30.10;;;;;;5997697;29;20030;-71
2023/04/07 13:42:19;;;;;;;1.23;0.60;;;20.20;31.50;;;;;;6005530;29;20029;-71
2023/04/07 13:45:20;;;;;;;2.28;0.50;;;19.40;33.90;;;;;;5992856;29;20038;-71
2023/04/07 13:48:21;;;;;;;1.80;0.60;;;18.70;35.70;;;;;;5982305;29;20049;-69
2023/04/07 13:51:22;;;;;;;1.33;0.60;;;18.00;37.70;;;;;;5982267;29;20034;-70
2023/04/07 13:54:22;;;;;;;2.17;0.68;;;17.40;39.20;;;;;;5982754;29;20114;-69
2023/04/07 13:57:23;;;;;;;1.70;0.95;;;17.10;39.90;;;;;;6021919;29;20175;-70
2023/04/07 14:00:25;;;;;;;3.55;0.93;;;16.80;39.70;;;;;;5983253;29;20038;-72
2023/04/07 14:03:26;;;;;;;0.93;0.60;;;16.60;40.20;;;;;;5983286;29;20428;-72
2023/04/07 14:06:28;;;;;;;3.45;1.00;;;16.60;40.00;;;;;;5982850;29;20136;-71
2023/04/07 14:09:30;;;;;;;0.70;0.57;;;16.90;40.20;;;;;;5982140;29;20050;-71
2023/04/07 14:12:31;;;;;;;3.60;0.82;;;17.30;39.90;;;;;;5999049;29;20379;-74
2023/04/07 14:15:32;;;;;;;1.52;1.00;;;17.90;39.20;;;;;;6004631;29;20054;-71
2023/04/07 14:18:33;;;;;;;1.30;0.73;;;18.20;38.90;;;;;;6004268;29;20034;-71
2023/04/07 14:21:34;;;;;;;1.70;0.80;;;18.20;39.20;;;;;;6003033;29;20049;-70
2023/04/07 14:24:35;;;;;;;2.15;0.93;;;18.20;39.20;;;;;;5993349;29;20070;-72
2023/04/07 14:27:36;;;;;;;2.13;1.00;;;18.20;39.30;;;;;;5982384;29;20030;-72
2023/04/07 14:30:37;;;;;;;3.88;1.05;;;18.20;39.50;;;;;;5982103;29;20050;-70
2023/04/07 14:33:38;;;;;;;3.60;1.13;;;18.10;39.80;;;;;;5980959;29;20034;-71
2023/04/07 14:36:39;;;;;;;2.45;1.38;;;17.90;40.00;;;;;;5982331;29;20037;-71
2023/04/07 14:39:41;;;;;;;3.58;1.00;;;17.70;40.30;;;;;;5982107;29;20038;-71
2023/04/07 14:42:42;;;;;;;4.05;1.00;;;17.50;40.60;;;;;;5981378;29;20122;-73
2023/04/07 14:45:44;;;;;;;1.50;0.80;;;17.30;40.40;;;;;;5981567;29;20019;-70
2023/04/07 14:48:45;;;;;;;2.28;0.60;;;17.20;40.60;;;;;;5984514;29;20180;-71
2023/04/07 14:51:45;;;;;;;5.28;1.02;;;17.20;40.30;;;;;;5986232;29;20484;-71
2023/04/07 14:54:47;;;;;;;2.63;0.98;;;17.30;40.10;;;;;;6015057;29;20421;-70
2023/04/07 14:57:48;;;;;;;1.17;0.77;;;17.30;39.60;;;;;;5985794;29;20031;-72
2023/04/07 15:00:49;;;;;;;1.95;0.90;;;17.40;39.20;;;;;;6014683;29;20513;-72
2023/04/07 15:03:52;;;;;;;4.20;1.70;;;17.30;38.70;;;;;;5986513;29;20031;-71
2023/04/07 15:06:53;;;;;;;2.63;0.70;;;17.40;38.40;;;;;;5985846;29;20027;-72
2023/04/07 15:09:55;;;;;;;4.60;0.95;;;17.30;38.50;;;;;;5985522;29;20034;-71
2023/04/07 15:12:56;;;;;;;3.35;0.73;;;17.30;38.90;;;;;;5985652;29;20063;-70
2023/04/07 15:16:06;;;;;;;0.85;0.60;;;17.30;38.80;;;;;;5985755;29;20030;-70
2023/04/07 15:19:07;;;;;;;2.13;0.80;;;17.30;38.30;;;;;;5969327;29;20519;-74
2023/04/07 15:22:07;;;;;;;2.38;1.10;;;17.50;37.80;;;;;;5985468;29;20041;-72
2023/04/07 15:25:09;;;;;;;1.63;1.00;;;17.50;36.80;;;;;;5985130;29;20057;-71
2023/04/07 15:28:09;;;;;;;1.00;0.70;;;17.60;36.50;;;;;;6014425;29;20364;-71
2023/04/07 15:31:10;;;;;;;1.02;0.85;;;17.80;36.30;;;;;;5985774;29;20045;-69
2023/04/07 15:34:11;;;;;;;3.05;1.35;;;18.00;35.90;;;;;;5985405;29;20034;-71
2023/04/07 15:37:19;;;;;;;1.52;0.77;;;18.20;35.50;;;;;;6016078;29;20050;-69
2023/04/07 15:40:20;;;;;;;0.88;0.50;;;18.30;35.40;;;;;;6007649;29;20168;-70
2023/04/07 15:43:20;;;;;;;0.63;0.40;;;18.60;35.00;;;;;;6014011;29;20035;-71
2023/04/07 15:46:21;;;;;;;4.38;0.70;;;18.70;34.30;;;;;;5991579;29;20034;-72
2023/04/07 15:49:22;;;;;;;2.03;1.10;;;18.70;34.00;;;;;;5961321;29;20379;-71
2023/04/07 15:52:23;;;;;;;4.53;1.83;;;18.80;34.00;;;;;;5997677;29;20126;-72